Airfield :
LOGIN :

Register | Disclaimer

   EN    FR    IT 

 










Legend :    VFR   Marginal VFR   IFR   Intensive IFR   Very Intensive IFR
Visi :
Ceiling :
>= 8 km
>= 3000ft
5 to 8 km
1000 to 3000 ft
1500m to 5 km
500 to 1000 ft
800 to 1500m
200 to 500 ft
< 800m
< 200 ft
Symbols :   Thunderstorms  Fog  Heavy snow  Heavy precipitations  Wind > 20 kt
SIGMETs :     Misc.  Thunderstorms  Icing  Turbulence  Mountain Waves  Volcanic Ashes







- Airport Elevation : 424 ft
- IATA code : QGY


LHPR - Györ Per

CURRENT METAR :
  • 281615Z AUTO 30014KT CAVOK 26/12 Q1012 RMK BLU

EXPIRED METARs :
  • 281545Z 30018KT CAVOK 26/10 Q1012 RMK BLU
  • 281515Z 29021KT CAVOK 27/10 Q1012 RMK BLU
  • 281445Z 30021KT CAVOK 27/11 Q1012 RMK BLU
  • 281415Z 29017KT 250V310 CAVOK 28/12 Q1012 RMK BLU
  • 281345Z 29013KT 250V330 CAVOK 27/12 Q1012 RMK BLU

TAF TAF LHPR
Valid from the 28 at 09:00 until the 28 at 18:00 UTC


280815Z 2809/2818 30009KT 9999 SCT035 SCT080
TEMPO 2809/2815 8000 -SHRA SCT030TCU BKN050
PROB30
TEMPO 2810/2815 VRB15G25KT 5000 SHRA -TSRA SCT030CB BKN050
BECMG 2815/2818 29015G25KT CAVOK
No reported NOTAMs for that airfield.



MET'MAP, your aeronautical weather chart ! - Copyright ORBIFLY December 2007 - Disclaimer

ORBIFLY MET'MAP TEAM :

Programming & Development : Alexandra Zaïnal
Concept & Development : Baudouin d'Aumeries
Co-Development & Prog : Marc-Olivier Méhu
Technical & hardware support : Manuel Goepfert

Contact : metmap@orbifly.com




SOURCES & CREDITS :

   NOAA